createdAt,value
2018-09-15T00:01:49.282Z,59.76
2018-09-15T00:06:53.583Z,59.62
2018-09-15T00:11:57.445Z,59.24
2018-09-15T00:17:00.489Z,59.29
2018-09-15T00:22:03.567Z,59.23
2018-09-15T00:27:06.670Z,59.62
2018-09-15T00:32:10.672Z,59.41
2018-09-15T00:37:15.427Z,59.98
2018-09-15T00:42:21.339Z,60.68
2018-09-15T00:47:24.684Z,61.32
2018-09-15T00:52:28.209Z,61.52
2018-09-15T00:57:31.241Z,61.78
2018-09-15T01:02:34.633Z,61.90
2018-09-15T01:07:38.570Z,61.83
2018-09-15T01:12:43.386Z,62.48
2018-09-15T01:17:48.851Z,62.07
2018-09-15T01:22:54.382Z,62.54
2018-09-15T01:27:57.543Z,62.27
2018-09-15T01:33:00.727Z,62.91
2018-09-15T01:38:03.743Z,62.42
2018-09-15T01:43:06.774Z,62.71
2018-09-15T01:48:09.803Z,62.86
2018-09-15T01:53:13.489Z,62.60
2018-09-15T01:58:19.153Z,63.02
2018-09-15T02:03:23.009Z,63.93
2018-09-15T02:08:26.859Z,63.65
2018-09-15T02:13:29.869Z,63.74
2018-09-15T02:18:32.894Z,64.21
2018-09-15T02:23:35.894Z,64.98
2018-09-15T02:28:38.922Z,64.69
2018-09-15T02:33:41.934Z,65.16
2018-09-15T02:38:48.463Z,65.42
2018-09-15T02:43:52.737Z,65.22
2018-09-15T02:48:57.219Z,65.87
2018-09-15T02:54:00.239Z,65.87
2018-09-15T02:59:03.241Z,66.29
2018-09-15T03:04:06.277Z,66.42
2018-09-15T03:09:10.709Z,66.21
2018-09-15T03:14:15.449Z,66.67
2018-09-15T03:19:20.979Z,66.92
2018-09-15T03:24:24.704Z,67.20
2018-09-15T03:29:28.013Z,66.82
2018-09-15T03:34:31.046Z,66.96
2018-09-15T03:39:34.060Z,67.40
2018-09-15T03:44:38.206Z,67.36
2018-09-15T03:49:42.740Z,67.14
2018-09-15T03:54:48.565Z,67.25
2018-09-15T03:59:53.781Z,67.18
2018-09-15T04:04:57.483Z,67.66
2018-09-15T04:10:00.606Z,67.93
2018-09-15T04:15:03.737Z,68.00
2018-09-15T04:20:06.779Z,67.82
2018-09-15T04:25:09.985Z,67.34
2018-09-15T04:30:15.355Z,67.66
2018-09-15T04:35:20.867Z,67.05
2018-09-15T04:40:25.042Z,67.52
2018-09-15T04:45:28.385Z,67.04
2018-09-15T04:50:31.409Z,66.98
2018-09-15T04:55:34.423Z,66.68
2018-09-15T05:00:37.641Z,66.79
2018-09-15T05:05:42.043Z,67.06
2018-09-15T05:10:46.191Z,67.17
2018-09-15T05:15:50.335Z,68.09
2018-09-15T05:20:53.793Z,67.95
2018-09-15T05:25:57.483Z,68.57
2018-09-15T05:31:00.578Z,68.29
2018-09-15T05:36:03.635Z,67.87
2018-09-15T05:41:06.658Z,67.82
2018-09-15T05:46:09.696Z,65.97
2018-09-15T05:51:13.624Z,65.54
2018-09-15T05:56:18.547Z,65.62
2018-09-15T06:01:23.129Z,65.34
2018-09-15T06:06:27.229Z,65.77
2018-09-15T06:11:30.420Z,65.40
2018-09-15T06:16:33.472Z,64.19
2018-09-15T06:21:36.629Z,63.53
2018-09-15T06:26:39.765Z,64.13
2018-09-15T06:31:42.902Z,63.80
2018-09-15T06:36:49.753Z,64.01
2018-09-15T06:41:54.451Z,63.93
2018-09-15T06:46:58.356Z,63.32
2018-09-15T06:52:01.414Z,62.95
2018-09-15T06:57:04.489Z,62.91
2018-09-15T07:02:07.565Z,63.56
2018-09-15T07:07:11.934Z,63.75
2018-09-15T07:12:17.147Z,64.95
2018-09-15T07:17:21.587Z,64.29
2018-09-15T07:22:24.645Z,63.86
2018-09-15T07:27:29.316Z,63.52
2018-09-15T07:32:33.557Z,63.36
2018-09-15T07:37:36.615Z,62.69
2018-09-15T07:42:39.649Z,62.75
2018-09-15T07:47:42.857Z,63.46
2018-09-15T07:52:47.474Z,63.12
2018-09-15T07:57:53.709Z,62.29
2018-09-15T08:02:58.389Z,62.21
2018-09-15T08:08:01.631Z,61.96
2018-09-15T08:13:06.406Z,61.31
2018-09-15T08:18:09.641Z,60.89
2018-09-15T08:23:12.687Z,59.66
2018-09-15T08:28:18.678Z,59.64
2018-09-15T08:33:23.140Z,58.86
2018-09-15T08:38:27.535Z,58.29
2018-09-15T08:43:30.712Z,57.17
2018-09-15T08:48:33.756Z,56.49
2018-09-15T08:53:36.814Z,55.25
2018-09-15T08:58:39.862Z,54.57
2018-09-15T09:03:42.963Z,54.89
2018-09-15T09:08:47.499Z,55.89
2018-09-15T09:13:52.081Z,55.98
2018-09-15T09:18:56.599Z,55.17
2018-09-15T09:23:59.790Z,54.76
2018-09-15T09:29:02.833Z,53.63
2018-09-15T09:34:07.237Z,61.62
2018-09-15T09:39:11.928Z,66.53
2018-09-15T09:44:15.006Z,69.49
2018-09-15T09:49:19.942Z,70.01
2018-09-15T09:54:25.031Z,69.22
2018-09-15T09:59:28.218Z,69.33
2018-09-15T10:04:31.784Z,70.38
2018-09-15T10:09:34.775Z,69.00
2018-09-15T10:14:37.799Z,66.80
2018-09-15T10:19:41.510Z,65.86
2018-09-15T10:24:46.094Z,64.82
2018-09-15T10:29:52.738Z,62.57
2018-09-15T10:34:57.299Z,61.91
2018-09-15T10:40:01.558Z,58.88
2018-09-15T10:45:05.280Z,56.41
2018-09-15T10:50:08.706Z,54.99
2018-09-15T10:55:12.682Z,54.10
2018-09-15T11:00:19.705Z,53.66
2018-09-15T11:05:24.297Z,53.83
2018-09-15T11:10:28.776Z,53.20
2018-09-15T11:15:31.930Z,52.36
2018-09-15T11:20:36.240Z,52.66
2018-09-15T11:25:40.324Z,53.00
2018-09-15T11:30:43.357Z,53.90
2018-09-15T11:35:49.584Z,53.41
2018-09-15T11:40:54.232Z,52.19
2018-09-15T11:45:58.937Z,53.18
2018-09-15T11:51:02.134Z,52.24
2018-09-15T11:56:05.186Z,50.90
2018-09-15T12:01:08.410Z,51.74
2018-09-15T12:06:15.272Z,51.83
2018-09-15T12:11:20.238Z,51.36
2018-09-15T12:16:24.094Z,49.87
2018-09-15T12:21:27.215Z,50.24
2018-09-15T12:26:30.195Z,49.88
2018-09-15T12:31:33.244Z,48.90
2018-09-15T12:36:38.042Z,48.44
2018-09-15T12:41:47.892Z,48.81
2018-09-15T12:46:51.978Z,48.61
2018-09-15T12:51:55.197Z,49.48
2018-09-15T12:56:58.255Z,49.88
2018-09-15T13:02:01.954Z,50.17
2018-09-15T13:07:05.140Z,49.71
2018-09-15T13:12:08.260Z,50.12
2018-09-15T13:17:13.659Z,50.12
2018-09-15T13:22:18.266Z,50.40
2018-09-15T13:27:21.954Z,49.78
2018-09-15T13:32:25.086Z,49.45
2018-09-15T13:37:28.226Z,49.49
2018-09-15T13:42:31.575Z,49.43
2018-09-15T13:47:34.965Z,48.54
2018-09-15T13:52:39.906Z,48.02
2018-09-15T13:57:43.435Z,48.26
2018-09-15T14:02:47.947Z,48.67
2018-09-15T14:07:51.708Z,49.23
2018-09-15T14:12:55.131Z,49.14
2018-09-15T14:17:58.309Z,48.17
2018-09-15T14:23:01.553Z,47.08
2018-09-15T14:28:05.178Z,45.86
2018-09-15T14:33:09.438Z,44.46
2018-09-15T14:38:15.764Z,43.95
2018-09-15T14:43:23.423Z,44.50
2018-09-15T14:48:27.905Z,44.08
2018-09-15T14:53:31.180Z,44.76
2018-09-15T14:58:34.426Z,43.95
2018-09-15T15:03:37.797Z,44.71
2018-09-15T15:08:41.113Z,44.99
2018-09-15T15:13:44.361Z,44.75
2018-09-15T15:18:47.427Z,43.99
2018-09-15T15:23:50.664Z,44.45
2018-09-15T15:28:54.596Z,45.00
2018-09-15T15:33:57.973Z,45.30
2018-09-15T15:39:01.628Z,46.78
2018-09-15T15:44:04.826Z,47.54
2018-09-15T15:49:08.102Z,47.88
2018-09-15T15:54:12.788Z,47.99
2018-09-15T15:59:16.063Z,47.75
2018-09-15T16:04:19.878Z,48.44
2018-09-15T16:09:23.558Z,48.49
2018-09-15T16:14:26.827Z,48.54
2018-09-15T16:19:30.301Z,48.68
2018-09-15T16:29:36.339Z,49.53
2018-09-15T16:34:39.628Z,50.03
2018-09-15T16:39:42.898Z,50.01
2018-09-15T16:44:49.948Z,50.28
2018-09-15T16:49:54.167Z,50.11
2018-09-15T16:54:57.547Z,50.53
2018-09-15T17:00:00.930Z,50.54
2018-09-15T17:05:04.221Z,50.34
2018-09-15T17:10:07.521Z,50.84
2018-09-15T17:15:10.899Z,51.04
2018-09-15T17:20:15.518Z,51.16
2018-09-15T17:25:20.142Z,51.02
2018-09-15T17:30:24.750Z,51.21
2018-09-15T17:35:28.660Z,51.80
2018-09-15T17:40:32.766Z,51.43
2018-09-15T17:45:36.048Z,51.89
2018-09-15T17:50:39.386Z,52.28
2018-09-15T17:55:42.813Z,52.76
2018-09-15T18:00:46.133Z,52.65
2018-09-15T18:05:49.411Z,52.74
2018-09-15T18:10:52.619Z,53.41
2018-09-15T18:15:56.195Z,54.00
2018-09-15T18:20:59.475Z,53.79
2018-09-15T18:26:02.779Z,54.95
2018-09-15T18:31:06.767Z,55.05
2018-09-15T18:36:10.894Z,55.03
2018-09-15T18:41:15.156Z,54.75
2018-09-15T18:46:18.363Z,55.57
2018-09-15T18:51:21.541Z,55.78
2018-09-15T18:56:24.779Z,55.93
2018-09-15T19:01:27.839Z,56.01
2018-09-15T19:06:31.043Z,56.55
2018-09-15T19:11:34.543Z,56.52
2018-09-15T19:16:38.804Z,57.42
2018-09-15T19:21:45.399Z,57.38
2018-09-15T19:26:49.299Z,58.36
2018-09-15T19:31:53.372Z,58.37
2018-09-15T19:36:56.585Z,59.39
2018-09-15T19:42:01.135Z,59.70
2018-09-15T19:47:05.982Z,59.88
2018-09-15T19:52:12.047Z,60.75
2018-09-15T19:57:16.318Z,61.43
2018-09-15T20:02:21.450Z,61.52
2018-09-15T20:07:26.104Z,61.50
2018-09-15T20:12:30.605Z,62.08
2018-09-15T20:17:32.864Z,63.66
2018-09-15T20:22:46.162Z,65.77
2018-09-15T20:27:50.811Z,65.57
2018-09-15T20:32:54.611Z,65.44
2018-09-15T20:37:59.188Z,65.87
2018-09-15T20:43:04.243Z,65.50
2018-09-15T20:48:08.693Z,64.77
2018-09-15T20:53:15.163Z,65.37
2018-09-15T20:58:19.502Z,65.99
2018-09-15T21:03:24.207Z,66.09
2018-09-15T21:08:27.969Z,66.54
2018-09-15T21:13:32.685Z,64.90
2018-09-15T21:18:45.852Z,65.06
2018-09-15T21:23:50.553Z,66.51
2018-09-15T21:28:55.197Z,66.06
2018-09-15T21:33:59.635Z,66.27
2018-09-15T21:39:13.112Z,66.79
2018-09-15T21:44:16.777Z,68.13
2018-09-15T21:49:20.692Z,68.69
2018-09-15T21:54:24.781Z,67.42
2018-09-15T21:59:28.874Z,67.81
2018-09-15T22:04:31.924Z,68.00
2018-09-15T22:09:41.564Z,68.68
2018-09-15T22:14:45.681Z,68.93
2018-09-15T22:19:49.192Z,68.95
2018-09-15T22:24:53.287Z,69.83
2018-09-15T22:29:56.833Z,69.45
2018-09-15T22:35:01.181Z,69.95
2018-09-15T22:40:09.283Z,69.31
2018-09-15T22:45:13.883Z,69.46
2018-09-15T22:50:17.515Z,69.92
2018-09-15T22:55:20.553Z,69.84
2018-09-15T23:00:23.613Z,69.84
2018-09-15T23:05:26.679Z,70.12
2018-09-15T23:10:29.775Z,71.06
2018-09-15T23:15:32.802Z,71.02
2018-09-15T23:20:44.389Z,71.64
2018-09-15T23:25:47.623Z,71.97
2018-09-15T23:30:50.654Z,71.40
2018-09-15T23:35:53.689Z,70.88
2018-09-15T23:40:56.707Z,70.67
2018-09-15T23:46:00.579Z,71.29
2018-09-15T23:51:05.676Z,71.15
2018-09-15T23:56:15.843Z,71.71
